Terminal Aerodrome Forecast
Issued by NWS Cleveland, OH

Home | Current Version | Previous Version | Graphics & Text | Print | Product List | Glossary On
Versions: 1 2 3 4 5 6 7 8 9 10 11 12 13 14 15 16 17 18 19 20 21 22
630
FTUS41 KCLE 092057 AAA
TAFMFD
TAF AMD
KMFD 092057Z 0921/1018 20009KT 4SM -SHSN BR OVC015
      TEMPO 0921/0924 2SM -SN BR BKN008
     FM100300 29010KT P6SM VCSH OVC015
     FM100900 28010KT P6SM SCT015 OVC025
     FM101500 25012G20KT P6SM SCT030 BKN035=

USA.gov is the U.S. government's official web portal to all federal, state and local government web resources and services.